createdAt,value
2019-06-10T00:01:42.449Z,95.70
2019-06-10T00:04:30.883Z,95.60
2019-06-10T00:07:18.109Z,95.60
2019-06-10T00:10:07.447Z,95.60
2019-06-10T00:12:55.453Z,95.40
2019-06-10T00:15:42.645Z,95.70
2019-06-10T00:18:38.406Z,97.20
2019-06-10T00:21:18.291Z,97.80
2019-06-10T00:24:06.834Z,98.00
2019-06-10T00:26:54.646Z,98.30
2019-06-10T00:29:41.914Z,98.30
2019-06-10T00:32:31.883Z,98.30
2019-06-10T00:35:18.018Z,98.80
2019-06-10T00:38:08.554Z,98.70
2019-06-10T00:40:54.654Z,98.70
2019-06-10T00:43:41.847Z,98.70
2019-06-10T00:46:31.506Z,99.10
2019-06-10T00:49:17.960Z,98.70
2019-06-10T00:52:06.178Z,98.40
2019-06-10T00:54:53.901Z,98.30
2019-06-10T00:57:41.801Z,98.40
2019-06-10T01:00:31.606Z,98.60
2019-06-10T01:03:17.809Z,98.30
2019-06-10T01:06:06.394Z,97.70
2019-06-10T01:08:53.969Z,97.60
2019-06-10T01:11:41.382Z,97.70
2019-06-10T01:14:28.625Z,97.70
2019-06-10T01:17:15.830Z,97.80
2019-06-10T01:20:03.733Z,97.60
2019-06-10T01:22:51.636Z,97.70
2019-06-10T01:25:41.884Z,97.90
2019-06-10T01:28:28.111Z,98.10
2019-06-10T01:31:19.219Z,98.10
2019-06-10T01:34:05.432Z,98.30
2019-06-10T01:36:52.750Z,98.90
2019-06-10T01:39:41.228Z,99.80
2019-06-10T01:42:30.690Z,99.90
2019-06-10T01:45:17.424Z,99.90
2019-06-10T01:48:04.716Z,99.90
2019-06-10T01:50:52.161Z,99.90
2019-06-10T01:53:41.500Z,99.90
2019-06-10T01:56:28.440Z,99.90
2019-06-10T01:59:16.898Z,99.90
2019-06-10T02:02:09.825Z,99.90
2019-06-10T02:04:57.258Z,99.90
2019-06-10T02:07:44.437Z,99.90
2019-06-10T02:10:31.742Z,99.90
2019-06-10T02:13:32.717Z,99.60
2019-06-10T02:16:23.878Z,99.60
2019-06-10T02:19:12.975Z,99.90
2019-06-10T02:22:01.023Z,99.90
2019-06-10T02:24:47.477Z,99.90
2019-06-10T02:27:34.682Z,99.90
2019-06-10T02:30:36.222Z,99.90
2019-06-10T02:33:12.812Z,99.90
2019-06-10T02:36:03.458Z,99.90
2019-06-10T02:38:48.742Z,99.90
2019-06-10T02:41:36.730Z,99.60
2019-06-10T02:44:32.535Z,99.90
2019-06-10T02:47:16.061Z,99.90
2019-06-10T02:50:07.323Z,99.90
2019-06-10T02:52:53.105Z,99.90
2019-06-10T02:55:43.197Z,99.90
2019-06-10T02:58:37.258Z,99.90
2019-06-10T03:01:19.232Z,99.90
2019-06-10T03:04:06.067Z,99.90
2019-06-10T03:06:54.248Z,99.90
2019-06-10T03:09:42.735Z,99.90
2019-06-10T03:12:32.944Z,99.90
2019-06-10T03:15:19.958Z,99.90
2019-06-10T03:18:07.337Z,99.90
2019-06-10T03:20:54.314Z,99.90
2019-06-10T03:23:42.736Z,99.90
2019-06-10T03:26:32.132Z,99.90
2019-06-10T03:29:18.612Z,99.90
2019-06-10T03:32:06.206Z,99.90
2019-06-10T03:34:54.890Z,99.90
2019-06-10T03:37:42.479Z,99.90
2019-06-10T03:40:29.977Z,99.90
2019-06-10T03:43:17.081Z,99.90
2019-06-10T03:46:04.310Z,99.90
2019-06-10T03:48:52.609Z,99.90
2019-06-10T03:51:42.567Z,99.90
2019-06-10T03:54:29.569Z,99.90
2019-06-10T03:57:17.182Z,99.90
2019-06-10T04:00:10.437Z,99.90
2019-06-10T04:02:54.226Z,99.90
2019-06-10T04:05:42.358Z,99.90
2019-06-10T04:08:32.575Z,99.90
2019-06-10T04:11:19.489Z,99.90
2019-06-10T04:14:07.131Z,99.90
2019-06-10T04:16:54.346Z,99.90
2019-06-10T04:19:42.205Z,99.90
2019-06-10T04:22:29.689Z,99.90
2019-06-10T04:25:17.763Z,99.90
2019-06-10T04:28:05.148Z,99.90
2019-06-10T04:30:53.546Z,99.90
2019-06-10T04:33:42.072Z,99.90
2019-06-10T04:36:29.818Z,99.90
2019-06-10T04:39:16.777Z,99.90
2019-06-10T04:42:04.193Z,99.90
2019-06-10T04:44:52.542Z,99.90
2019-06-10T04:47:39.897Z,99.90
2019-06-10T04:50:35.107Z,99.90
2019-06-10T04:53:15.820Z,99.90
2019-06-10T04:56:03.222Z,99.90
2019-06-10T04:58:52.553Z,99.90
2019-06-10T05:01:42.356Z,99.90
2019-06-10T05:04:30.709Z,99.90
2019-06-10T05:07:18.933Z,99.90
2019-06-10T05:10:06.689Z,99.90
2019-06-10T05:12:53.841Z,99.90
2019-06-10T05:15:43.174Z,99.90
2019-06-10T05:18:30.281Z,99.90
2019-06-10T05:21:19.606Z,99.90
2019-06-10T05:24:07.010Z,99.90
2019-06-10T05:26:54.278Z,99.90
2019-06-10T05:29:42.216Z,99.90
2019-06-10T05:32:31.142Z,99.90
2019-06-10T05:35:18.471Z,99.90
2019-06-10T05:38:05.865Z,99.90
2019-06-10T05:40:53.322Z,99.90
2019-06-10T05:43:42.773Z,99.90
2019-06-10T05:46:30.305Z,99.90
2019-06-10T05:49:17.977Z,99.90
2019-06-10T05:52:05.531Z,99.90
2019-06-10T05:54:52.706Z,99.90
2019-06-10T05:57:39.934Z,99.90
2019-06-10T06:00:27.566Z,99.90
2019-06-10T06:03:14.714Z,99.90
2019-06-10T06:06:03.229Z,99.90
2019-06-10T06:08:53.160Z,99.90
2019-06-10T06:11:39.616Z,99.90
2019-06-10T06:14:27.531Z,99.90
2019-06-10T06:17:16.567Z,99.90
2019-06-10T06:20:04.279Z,99.90
2019-06-10T06:22:52.279Z,99.90
2019-06-10T06:25:44.277Z,99.90
2019-06-10T06:28:29.837Z,99.90
2019-06-10T06:31:17.786Z,99.90
2019-06-10T06:34:05.190Z,99.90
2019-06-10T06:36:52.926Z,99.90
2019-06-10T06:39:42.749Z,99.90
2019-06-10T06:42:29.385Z,99.90
2019-06-10T06:45:17.057Z,99.90
2019-06-10T06:48:04.385Z,99.90
2019-06-10T06:51:03.985Z,99.90
2019-06-10T06:53:50.605Z,99.90
2019-06-10T06:56:32.607Z,99.90
2019-06-10T06:59:18.626Z,99.90
2019-06-10T07:02:06.034Z,99.90
2019-06-10T07:04:53.253Z,99.90
2019-06-10T07:07:43.118Z,99.90
2019-06-10T07:10:30.947Z,99.90
2019-06-10T07:13:18.875Z,99.90
2019-06-10T07:16:05.815Z,99.90
2019-06-10T07:18:54.146Z,99.90
2019-06-10T07:22:02.278Z,99.90
2019-06-10T07:24:34.080Z,99.90
2019-06-10T07:27:19.724Z,99.90
2019-06-10T07:30:11.845Z,99.90
2019-06-10T07:32:55.988Z,99.90
2019-06-10T07:35:45.044Z,99.90
2019-06-10T07:38:33.869Z,99.90
2019-06-10T07:41:22.990Z,99.90
2019-06-10T07:44:12.311Z,99.90
2019-06-10T07:46:58.646Z,99.90
2019-06-10T07:49:45.872Z,99.90
2019-06-10T07:52:34.352Z,99.90
2019-06-10T07:55:22.493Z,99.90
2019-06-10T07:58:09.817Z,99.90
2019-06-10T08:00:57.009Z,99.90
2019-06-10T08:03:46.437Z,99.90
2019-06-10T08:06:34.730Z,99.90
2019-06-10T08:09:22.783Z,99.90
2019-06-10T08:12:12.589Z,99.90
2019-06-10T08:14:59.307Z,99.90
2019-06-10T08:17:48.141Z,99.90
2019-06-10T08:20:48.176Z,99.90
2019-06-10T08:23:36.911Z,99.90
2019-06-10T08:26:24.577Z,99.90
2019-06-10T08:29:12.687Z,99.90
2019-06-10T08:32:03.031Z,99.90
2019-06-10T08:34:49.266Z,99.90
2019-06-10T08:37:36.279Z,99.90
2019-06-10T08:40:23.725Z,99.90
2019-06-10T08:43:13.327Z,99.90
2019-06-10T08:46:02.339Z,99.90
2019-06-10T08:48:49.586Z,99.90
2019-06-10T08:51:37.095Z,99.90
2019-06-10T08:54:24.596Z,99.90
2019-06-10T08:57:12.632Z,99.90
2019-06-10T09:00:04.045Z,99.90
2019-06-10T09:02:50.897Z,99.40
2019-06-10T09:05:38.739Z,99.90
2019-06-10T09:08:26.394Z,99.90
2019-06-10T09:11:13.534Z,99.90
2019-06-10T09:14:02.563Z,99.90
2019-06-10T09:16:50.800Z,99.90
2019-06-10T09:19:38.771Z,99.90
2019-06-10T09:22:26.983Z,99.90
2019-06-10T09:25:17.364Z,99.90
2019-06-10T09:28:04.765Z,99.90
2019-06-10T09:30:57.997Z,99.90
2019-06-10T09:33:42.722Z,99.70
2019-06-10T09:36:29.550Z,99.60
2019-06-10T09:39:16.777Z,99.00
2019-06-10T09:42:06.572Z,99.80
2019-06-10T09:44:55.690Z,99.90
2019-06-10T09:47:45.627Z,99.90
2019-06-10T09:50:45.471Z,98.90
2019-06-10T09:53:38.861Z,99.90
2019-06-10T09:56:18.362Z,99.60
2019-06-10T09:59:05.810Z,98.10
2019-06-10T10:01:58.740Z,99.40
2019-06-10T10:04:47.726Z,99.40
2019-06-10T10:07:32.498Z,99.20
2019-06-10T10:10:24.152Z,97.70
2019-06-10T10:13:13.122Z,98.80
2019-06-10T10:16:02.386Z,98.20
2019-06-10T10:18:51.845Z,98.00
2019-06-10T10:21:41.231Z,98.30
2019-06-10T10:24:26.746Z,97.20
2019-06-10T10:27:14.405Z,96.90
2019-06-10T10:30:03.846Z,97.60
2019-06-10T10:32:52.346Z,98.20
2019-06-10T10:35:39.413Z,97.00
2019-06-10T10:38:26.345Z,98.20
2019-06-10T10:41:13.670Z,97.30
2019-06-10T10:44:03.150Z,97.20
2019-06-10T10:46:49.738Z,97.00
2019-06-10T10:49:37.078Z,95.70
2019-06-10T10:52:24.603Z,94.80
2019-06-10T10:55:13.099Z,95.00
2019-06-10T10:58:02.996Z,95.10
2019-06-10T11:00:52.020Z,95.90
2019-06-10T11:03:38.606Z,95.20
2019-06-10T11:06:26.042Z,95.80
2019-06-10T11:09:13.569Z,95.70
2019-06-10T11:12:02.857Z,96.40
2019-06-10T11:14:54.450Z,95.90
2019-06-10T11:17:42.673Z,95.40
2019-06-10T11:20:30.060Z,93.80
2019-06-10T11:23:16.994Z,94.70
2019-06-10T11:26:04.827Z,94.60
2019-06-10T11:28:54.414Z,95.40
2019-06-10T11:31:42.587Z,95.40
2019-06-10T11:34:29.996Z,94.60
2019-06-10T11:37:17.198Z,94.60
2019-06-10T11:40:05.210Z,95.70
2019-06-10T11:42:56.415Z,95.60
2019-06-10T11:45:48.118Z,95.80
2019-06-10T11:48:32.868Z,95.80
2019-06-10T11:51:19.644Z,95.00
2019-06-10T11:54:06.941Z,95.90
2019-06-10T11:56:56.467Z,96.50
2019-06-10T11:59:43.445Z,97.30
2019-06-10T12:02:32.950Z,95.60
2019-06-10T12:05:23.471Z,96.30
2019-06-10T12:08:12.986Z,96.90
2019-06-10T12:11:02.279Z,97.40
2019-06-10T12:13:49.125Z,97.40
2019-06-10T12:17:17.774Z,97.70
2019-06-10T12:19:25.265Z,97.60
2019-06-10T12:22:13.386Z,99.50
2019-06-10T12:25:24.910Z,99.90
2019-06-10T12:27:51.218Z,99.90
2019-06-10T12:30:38.781Z,98.50
2019-06-10T12:33:26.178Z,99.10
2019-06-10T12:36:15.256Z,99.30
2019-06-10T12:39:10.264Z,99.90
2019-06-10T12:41:54.841Z,99.80
2019-06-10T12:44:42.895Z,99.10
2019-06-10T12:47:29.849Z,99.50
2019-06-10T12:50:17.357Z,99.10
2019-06-10T12:53:07.075Z,99.40
2019-06-10T12:55:55.881Z,98.90
2019-06-10T12:58:43.417Z,99.40
2019-06-10T13:01:32.971Z,99.00
2019-06-10T13:04:19.599Z,98.10
2019-06-10T13:07:08.541Z,97.30
2019-06-10T13:09:57.804Z,98.10
2019-06-10T13:12:48.780Z,97.10
2019-06-10T13:15:34.121Z,97.70
2019-06-10T13:18:23.859Z,98.50
2019-06-10T13:21:16.516Z,97.60
2019-06-10T13:23:59.681Z,98.50
2019-06-10T13:26:47.009Z,96.80
2019-06-10T13:29:34.208Z,97.30
2019-06-10T13:32:21.562Z,97.90
2019-06-10T13:35:09.146Z,98.60
2019-06-10T13:37:56.830Z,97.90
2019-06-10T13:40:44.879Z,97.70
2019-06-10T13:43:33.791Z,96.90
2019-06-10T13:46:24.317Z,97.40
2019-06-10T13:49:12.150Z,97.20
2019-06-10T13:52:00.066Z,97.20
2019-06-10T13:54:48.178Z,97.20
2019-06-10T13:57:35.377Z,97.30
2019-06-10T14:00:40.635Z,96.70
2019-06-10T14:03:15.954Z,96.90
2019-06-10T14:06:11.257Z,96.10
2019-06-10T14:08:52.169Z,94.90
2019-06-10T14:11:38.934Z,95.60
2019-06-10T14:14:26.215Z,95.20
2019-06-10T14:17:19.014Z,95.90
2019-06-10T14:20:03.627Z,96.30
2019-06-10T14:22:52.980Z,97.10
2019-06-10T14:25:42.263Z,97.40
2019-06-10T14:28:39.989Z,96.60
2019-06-10T14:31:38.595Z,96.60
2019-06-10T14:34:09.320Z,97.10
2019-06-10T14:36:56.282Z,96.90
2019-06-10T14:39:43.602Z,97.20
2019-06-10T14:42:32.282Z,97.90
2019-06-10T14:45:20.006Z,97.50
2019-06-10T14:48:07.014Z,97.00
2019-06-10T14:50:54.579Z,97.70
2019-06-10T14:53:42.676Z,96.70
2019-06-10T14:56:30.297Z,97.60
2019-06-10T14:59:18.076Z,96.80
2019-06-10T15:02:06.129Z,97.00
2019-06-10T15:04:53.427Z,97.10
2019-06-10T15:07:42.307Z,97.60
2019-06-10T15:10:29.478Z,96.90
2019-06-10T15:13:16.778Z,97.30
2019-06-10T15:16:04.667Z,97.90
2019-06-10T15:18:52.542Z,97.90
2019-06-10T15:21:40.170Z,97.00
2019-06-10T15:24:27.082Z,97.80
2019-06-10T15:27:23.331Z,97.70
2019-06-10T15:30:11.712Z,97.80
2019-06-10T15:32:52.685Z,98.80
2019-06-10T15:35:42.476Z,98.70
2019-06-10T15:38:28.810Z,98.60
2019-06-10T15:41:19.511Z,99.10
2019-06-10T15:44:05.257Z,98.90
2019-06-10T15:46:52.541Z,99.10
2019-06-10T15:49:39.874Z,98.90
2019-06-10T15:52:27.222Z,99.00
2019-06-10T15:55:33.515Z,98.90
2019-06-10T15:58:03.481Z,99.20
2019-06-10T16:00:53.129Z,99.80
2019-06-10T16:03:39.378Z,99.90
2019-06-10T16:06:27.032Z,99.90
2019-06-10T16:09:15.715Z,99.90
2019-06-10T16:12:03.671Z,99.90
2019-06-10T16:14:52.974Z,99.90
2019-06-10T16:17:42.866Z,99.90
2019-06-10T16:20:29.047Z,99.90
2019-06-10T16:23:17.555Z,99.90
2019-06-10T16:26:05.130Z,99.90
2019-06-10T16:28:52.450Z,99.90
2019-06-10T16:31:42.272Z,99.90
2019-06-10T16:34:29.175Z,99.90
2019-06-10T16:37:17.066Z,99.90
2019-06-10T16:40:04.845Z,99.90
2019-06-10T16:42:53.317Z,99.90
2019-06-10T16:45:43.140Z,99.90
2019-06-10T16:48:29.760Z,99.90
2019-06-10T16:51:17.619Z,99.90
2019-06-10T16:54:05.436Z,99.90
2019-06-10T16:56:52.409Z,99.90
2019-06-10T16:59:39.798Z,99.90
2019-06-10T17:02:26.959Z,99.90
2019-06-10T17:05:15.565Z,99.90
2019-06-10T17:08:03.341Z,99.90
2019-06-10T17:10:52.716Z,99.90
2019-06-10T17:13:42.067Z,99.90
2019-06-10T17:16:29.605Z,99.90
2019-06-10T17:19:18.540Z,99.90
2019-06-10T17:22:06.142Z,99.90
2019-06-10T17:24:53.767Z,99.90
2019-06-10T17:27:42.288Z,99.90
2019-06-10T17:30:30.041Z,99.90
2019-06-10T17:33:17.447Z,99.90
2019-06-10T17:36:04.649Z,99.90
2019-06-10T17:38:52.355Z,99.90
2019-06-10T17:41:42.519Z,99.90
2019-06-10T17:44:29.498Z,99.90
2019-06-10T17:47:17.314Z,99.90
2019-06-10T17:50:05.573Z,99.90
2019-06-10T17:52:53.518Z,99.90
2019-06-10T17:55:40.882Z,99.90
2019-06-10T17:58:38.413Z,99.90
2019-06-10T18:01:17.085Z,99.90
2019-06-10T18:04:04.666Z,99.90
2019-06-10T18:06:52.922Z,99.90
2019-06-10T18:09:40.249Z,99.90
2019-06-10T18:12:27.928Z,99.90
2019-06-10T18:15:15.665Z,99.90
2019-06-10T18:18:03.619Z,99.90
2019-06-10T18:20:53.560Z,99.90
2019-06-10T18:23:40.023Z,99.90
2019-06-10T18:26:27.291Z,99.90
2019-06-10T18:29:14.561Z,99.90
2019-06-10T18:32:03.476Z,99.90
2019-06-10T18:34:52.115Z,99.90
2019-06-10T18:37:39.244Z,99.90
2019-06-10T18:40:27.381Z,99.90
2019-06-10T18:43:18.079Z,99.90
2019-06-10T18:46:03.702Z,99.90
2019-06-10T18:48:53.504Z,99.90
2019-06-10T18:51:39.931Z,99.90
2019-06-10T18:54:27.752Z,99.90
2019-06-10T18:57:15.229Z,99.90
2019-06-10T19:00:07.046Z,99.90
2019-06-10T19:03:08.743Z,99.90
2019-06-10T19:05:42.149Z,99.90
2019-06-10T19:08:31.830Z,99.90
2019-06-10T19:11:18.732Z,99.90
2019-06-10T19:14:06.382Z,99.90
2019-06-10T19:16:53.629Z,99.90
2019-06-10T19:19:43.075Z,99.90
2019-06-10T19:22:30.076Z,99.90
2019-06-10T19:25:18.665Z,99.90
2019-06-10T19:28:05.765Z,99.90
2019-06-10T19:30:53.758Z,99.90
2019-06-10T19:33:44.771Z,99.90
2019-06-10T19:36:31.401Z,99.90
2019-06-10T19:39:18.814Z,99.90
2019-06-10T19:42:09.113Z,99.90
2019-06-10T19:44:54.720Z,99.90
2019-06-10T19:47:45.564Z,99.90
2019-06-10T19:50:34.026Z,99.90
2019-06-10T19:53:22.248Z,99.90
2019-06-10T19:56:09.594Z,99.90
2019-06-10T19:58:56.935Z,99.90
2019-06-10T20:01:46.575Z,99.90
2019-06-10T20:04:34.649Z,99.90
2019-06-10T20:07:22.981Z,99.90
2019-06-10T20:10:13.056Z,99.90
2019-06-10T20:12:59.497Z,99.90
2019-06-10T20:15:48.284Z,99.90
2019-06-10T20:18:35.730Z,99.90
2019-06-10T20:21:22.936Z,99.90
2019-06-10T20:24:12.326Z,99.90
2019-06-10T20:26:59.233Z,99.90
2019-06-10T20:30:02.387Z,99.90
2019-06-10T20:32:37.062Z,99.90
2019-06-10T20:35:24.669Z,99.90
2019-06-10T20:38:13.099Z,99.90
2019-06-10T20:41:02.436Z,99.90
2019-06-10T20:43:49.623Z,99.90
2019-06-10T20:46:38.467Z,99.90
2019-06-10T20:49:25.781Z,99.90
2019-06-10T20:52:14.820Z,99.90
2019-06-10T20:55:03.047Z,99.90
2019-06-10T20:58:02.649Z,99.90
2019-06-10T21:00:41.917Z,99.90
2019-06-10T21:03:28.378Z,99.90
2019-06-10T21:06:16.281Z,99.90
2019-06-10T21:09:05.101Z,99.90
2019-06-10T21:11:54.390Z,99.90
2019-06-10T21:14:42.727Z,99.90
2019-06-10T21:17:29.754Z,99.90
2019-06-10T21:20:17.075Z,99.90
2019-06-10T21:23:04.713Z,99.90
2019-06-10T21:25:52.526Z,99.90
2019-06-10T21:28:41.351Z,99.90
2019-06-10T21:31:29.594Z,99.90
2019-06-10T21:34:17.618Z,99.90
2019-06-10T21:37:04.855Z,99.90
2019-06-10T21:39:55.452Z,99.90
2019-06-10T21:42:41.682Z,99.90
2019-06-10T21:45:28.846Z,99.90
2019-06-10T21:48:16.131Z,99.90
2019-06-10T21:51:03.366Z,99.90
2019-06-10T21:53:52.868Z,99.90
2019-06-10T21:56:39.649Z,99.90
2019-06-10T21:59:26.551Z,99.90
2019-06-10T22:02:13.789Z,99.90
2019-06-10T22:05:03.313Z,99.90
2019-06-10T22:07:53.224Z,99.90
2019-06-10T22:10:39.046Z,99.90
2019-06-10T22:13:26.217Z,99.90
2019-06-10T22:16:13.469Z,99.90
2019-06-10T22:19:03.128Z,99.90
2019-06-10T22:21:50.566Z,99.90
2019-06-10T22:24:38.368Z,99.90
2019-06-10T22:27:25.628Z,99.90
2019-06-10T22:30:13.129Z,99.90
2019-06-10T22:33:03.019Z,99.90
2019-06-10T22:35:49.543Z,99.90
2019-06-10T22:38:36.917Z,99.90
2019-06-10T22:41:24.457Z,99.90
2019-06-10T22:44:12.738Z,99.90
2019-06-10T22:47:00.218Z,99.90
2019-06-10T22:49:49.877Z,99.90
2019-06-10T22:52:37.273Z,99.90
2019-06-10T22:55:24.482Z,99.90
2019-06-10T22:58:14.257Z,99.90
2019-06-10T23:01:00.638Z,99.90
2019-06-10T23:03:48.101Z,99.90
2019-06-10T23:06:35.097Z,99.90
2019-06-10T23:09:22.641Z,99.90
2019-06-10T23:12:11.922Z,99.90
2019-06-10T23:14:59.319Z,99.90
2019-06-10T23:17:46.361Z,99.90
2019-06-10T23:20:33.344Z,99.90
2019-06-10T23:23:23.113Z,99.90
2019-06-10T23:26:09.381Z,99.90
2019-06-10T23:28:57.571Z,99.90
2019-06-10T23:31:51.686Z,99.90
2019-06-10T23:34:34.793Z,99.90
2019-06-10T23:37:22.969Z,99.90
2019-06-10T23:40:12.563Z,99.90
2019-06-10T23:42:59.229Z,99.90
2019-06-10T23:45:46.217Z,99.90
2019-06-10T23:48:33.416Z,99.90
2019-06-10T23:51:22.785Z,99.90
2019-06-10T23:54:09.737Z,99.90
2019-06-10T23:56:58.610Z,99.90
2019-06-10T23:59:45.657Z,99.90
